< < Back
Terminal Aerodrome Forecast


Current Version              Previous Versions:   1  2  3  4  5  6  7  8  9  

Terminal Aerodrome Forecast

302
FTUS42 KGSP 012300
TAFAND
TAF
KAND 012320Z 0200/0224 21003KT P6SM FEW060 BKN200
     FM020300 00000KT P6SM SCT200
     FM021100 00000KT 5SM BR SCT150
     FM021400 25005KT P6SM SCT060
     FM021900 24007KT P6SM SCT050 PROB30 0221/0224 TSRA BKN040CB=



Latest METAR

369
SAUS70 KWBC 021000
MTRAND
METAR KAND 020956Z AUTO 00000KT 10SM CLR 22/21 A3009 RMK AO2 SLP179
T02170206


USA.gov is the U.S. government's official web portal to all federal, state and local government web resources and services.